Capt Amer — 3FCQ3 — position and weather

sailwx.info

Track history (hours):
 
Tides and Currents Weather Stations Pressure Air Temp Water Temp Dewpoint Dewpoint Depression Visibility Wind Speed Wind Dir Waves Ship Positions

Capt Amer

Last reported at 2016-Jul-26 11:15 UTC. Time now 2016-Jul-26 19:53 UTC.
Position N 37°11' E 024°03'.

Length 113 m; draft 5.1 m.

Type: Cargo ship. MMSI: 373175000.

Date/timePositionNaut miles runAvg speedWind from/ knotsBaromVisibWave heightAir tempDewpointWater temp
2016-Jul-26 11:15N 37°11' E 024°03'  
2016-Jul-20 05:29N 44°12' E 034°11'1010.9
2016-Jul-20 04:33N 44°19' E 034°22'1111.2
2016-Jul-20 03:34N 44°29' E 034°30'1111.0
2016-Jul-20 02:33N 44°39' E 034°36'4 3.7
2016-Jul-20 01:33N 44°42' E 034°37'0 0.0
2016-Jul-20 00:33N 44°42' E 034°37'0 0.1
2016-Jul-19 23:33N 44°42' E 034°37'0 0.0
2016-Jul-19 22:33N 44°42' E 034°37'0 0.0
2016-Jul-19 21:33N 44°42' E 034°37'0 0.0
2016-Jul-19 20:33N 44°42' E 034°37'0 0.0
2016-Jul-19 19:33N 44°42' E 034°37'0 0.0
2016-Jul-19 18:33N 44°42' E 034°37'0 0.0
2016-Jul-19 17:34N 44°42' E 034°37'0 0.0
2016-Jul-19 16:33N 44°42' E 034°37'0 0.0
2016-Jul-19 15:33N 44°42' E 034°37'0 0.0
2016-Jul-19 14:33N 44°42' E 034°37'0 0.0
2016-Jul-19 13:33N 44°42' E 034°37'0 0.0
2016-Jul-19 12:34N 44°42' E 034°37'0 0.0
2016-Jul-19 11:33N 44°42' E 034°37'0 0.0
2016-Jul-19 10:34N 44°42' E 034°37'0 0.0
2016-Jul-19 09:33N 44°42' E 034°37'0 0.0
2016-Jul-19 08:34N 44°42' E 034°37'0 0.0
2016-Jul-19 07:33N 44°42' E 034°37'0 0.0
2016-Jul-19 04:34N 44°42' E 034°37'0 0.0
2016-Jul-19 03:33N 44°42' E 034°37'0 0.0
2016-Jul-19 02:34N 44°42' E 034°37'0 0.0
2016-Jul-19 01:34N 44°42' E 034°37'0 0.0
2016-Jul-19 00:33N 44°42' E 034°37'0 0.0
2016-Jul-18 23:34N 44°42' E 034°37'0 0.1
2016-Jul-18 22:33N 44°42' E 034°37'6 5.8
2016-Jul-18 21:33N 44°37' E 034°35'8 8.4
2016-Jul-18 20:33N 44°29' E 034°29'1 0.6
2016-Jul-18 19:33N 44°30' E 034°30'1 0.7
2016-Jul-18 18:33N 44°30' E 034°30'1 0.8
2016-Jul-18 17:34N 44°31' E 034°30'1 0.7
2016-Jul-18 16:33N 44°32' E 034°30'1 0.6
2016-Jul-18 15:34N 44°33' E 034°30'0 0.1
2016-Jul-18 14:33N 44°33' E 034°30'6 6.1
2016-Jul-18 13:33N 44°29' E 034°24'7 6.8
2016-Jul-18 12:34N 44°22' E 034°25'1010.0
2016-Jul-18 11:33N 44°12' E 034°27'7 7.0
2016-Jul-18 10:33N 44°15' E 034°36'1110.9
2016-Jul-18 09:34N 44°21' E 034°48'9 9.4
2016-Jul-18 08:33N 44°25' E 035°00'2611.0
2016-Jul-18 06:13N 44°25' E 035°36'811.5
2016-Jul-18 05:33N 44°25' E 035°47'1311.6
2016-Jul-18 04:27N 44°27' E 036°05'1111.5
2016-Jul-18 03:30N 44°28' E 036°20'1111.4
2016-Jul-18 02:33N 44°29' E 036°35'1111.2
2016-Jul-18 01:33N 44°30' E 036°51'1111.2
2016-Jul-18 00:34N 44°31' E 037°06'1111.4
2016-Jul-17 23:34N 44°33' E 037°22'1111.2
2016-Jul-17 22:33N 44°34' E 037°38'10 9.9
2016-Jul-17 21:33N 44°39' E 037°50'5 5.1
2016-Jul-17 20:33N 44°44' E 037°48'0 0.0
2016-Jul-17 19:33N 44°44' E 037°48'0 0.0
2016-Jul-17 18:33N 44°44' E 037°48'0 0.0
2016-Jul-17 17:33N 44°44' E 037°48'0 0.0
2016-Jul-17 16:33N 44°44' E 037°48'0 0.0
2016-Jul-17 15:33N 44°44' E 037°48'0 0.0
2016-Jul-17 14:33N 44°44' E 037°48'0 0.0
2016-Jul-17 13:30N 44°44' E 037°48'0 0.0
2016-Jul-17 12:33N 44°44' E 037°48'0 0.0
2016-Jul-17 11:33N 44°44' E 037°48'0 0.0
2016-Jul-17 10:30N 44°44' E 037°48'0 0.0
2016-Jul-17 09:33N 44°44' E 037°48'0 0.0
2016-Jul-17 08:33N 44°44' E 037°48'0 0.0
2016-Jul-17 07:30N 44°44' E 037°48'0 0.0
2016-Jul-17 06:33N 44°44' E 037°48'0 0.0
2016-Jul-17 04:33N 44°44' E 037°48'0 0.0
2016-Jul-17 03:33N 44°44' E 037°48'0 0.0
2016-Jul-17 02:33N 44°44' E 037°48'0 0.0
2016-Jul-17 01:33N 44°44' E 037°48'0 0.0
2016-Jul-17 00:33N 44°44' E 037°48'0 0.0
2016-Jul-16 23:24N 44°44' E 037°48'0 0.0
2016-Jul-16 22:33N 44°44' E 037°48'0 0.0
2016-Jul-16 21:30N 44°44' E 037°48'0 0.0
2016-Jul-16 20:33N 44°44' E 037°48'0 0.0
2016-Jul-16 19:33N 44°44' E 037°48'0 0.0
2016-Jul-16 18:33N 44°44' E 037°48'0 0.0
2016-Jul-16 17:33N 44°44' E 037°48'0 0.0
2016-Jul-16 16:33N 44°44' E 037°48'0 0.0
2016-Jul-16 15:33N 44°44' E 037°48'0 0.0
2016-Jul-16 14:33N 44°44' E 037°48'0 0.0
2016-Jul-16 13:33N 44°44' E 037°48'0 0.0
2016-Jul-16 12:33N 44°44' E 037°48'0 0.0
2016-Jul-16 11:33N 44°44' E 037°48'  
Track history (hours):
 
Tides and Currents Weather Stations Pressure Air Temp Water Temp Dewpoint Dewpoint Depression Visibility Wind Speed Wind Dir Waves Ship Positions

Capt Amer

Last reported at 2016-Jul-26 11:15 UTC. Time now 2016-Jul-26 19:53 UTC.
Position N 37°11' E 024°03'.

Length 113 m; draft 5.1 m.

Type: Cargo ship. MMSI: 373175000.

Date/timePositionNaut miles runAvg speedWind from/ knotsBaromVisibWave heightAir tempDewpointWater temp
2016-Jul-26 11:15N 37°11' E 024°03'  
2016-Jul-20 05:29N 44°12' E 034°11'1010.9
2016-Jul-20 04:33N 44°19' E 034°22'1111.2
2016-Jul-20 03:34N 44°29' E 034°30'1111.0
2016-Jul-20 02:33N 44°39' E 034°36'4 3.7
2016-Jul-20 01:33N 44°42' E 034°37'0 0.0
2016-Jul-20 00:33N 44°42' E 034°37'0 0.1
2016-Jul-19 23:33N 44°42' E 034°37'0 0.0
2016-Jul-19 22:33N 44°42' E 034°37'0 0.0
2016-Jul-19 21:33N 44°42' E 034°37'0 0.0
2016-Jul-19 20:33N 44°42' E 034°37'0 0.0
2016-Jul-19 19:33N 44°42' E 034°37'0 0.0
2016-Jul-19 18:33N 44°42' E 034°37'0 0.0
2016-Jul-19 17:34N 44°42' E 034°37'0 0.0
2016-Jul-19 16:33N 44°42' E 034°37'0 0.0
2016-Jul-19 15:33N 44°42' E 034°37'0 0.0
2016-Jul-19 14:33N 44°42' E 034°37'0 0.0
2016-Jul-19 13:33N 44°42' E 034°37'0 0.0
2016-Jul-19 12:34N 44°42' E 034°37'0 0.0
2016-Jul-19 11:33N 44°42' E 034°37'0 0.0
2016-Jul-19 10:34N 44°42' E 034°37'0 0.0
2016-Jul-19 09:33N 44°42' E 034°37'0 0.0
2016-Jul-19 08:34N 44°42' E 034°37'0 0.0
2016-Jul-19 07:33N 44°42' E 034°37'0 0.0
2016-Jul-19 04:34N 44°42' E 034°37'0 0.0
2016-Jul-19 03:33N 44°42' E 034°37'0 0.0
2016-Jul-19 02:34N 44°42' E 034°37'0 0.0
2016-Jul-19 01:34N 44°42' E 034°37'0 0.0
2016-Jul-19 00:33N 44°42' E 034°37'0 0.0
2016-Jul-18 23:34N 44°42' E 034°37'0 0.1
2016-Jul-18 22:33N 44°42' E 034°37'6 5.8
2016-Jul-18 21:33N 44°37' E 034°35'8 8.4
2016-Jul-18 20:33N 44°29' E 034°29'1 0.6
2016-Jul-18 19:33N 44°30' E 034°30'1 0.7
2016-Jul-18 18:33N 44°30' E 034°30'1 0.8
2016-Jul-18 17:34N 44°31' E 034°30'1 0.7
2016-Jul-18 16:33N 44°32' E 034°30'1 0.6
2016-Jul-18 15:34N 44°33' E 034°30'0 0.1
2016-Jul-18 14:33N 44°33' E 034°30'6 6.1
2016-Jul-18 13:33N 44°29' E 034°24'7 6.8
2016-Jul-18 12:34N 44°22' E 034°25'1010.0
2016-Jul-18 11:33N 44°12' E 034°27'7 7.0
2016-Jul-18 10:33N 44°15' E 034°36'1110.9
2016-Jul-18 09:34N 44°21' E 034°48'9 9.4
2016-Jul-18 08:33N 44°25' E 035°00'2611.0
2016-Jul-18 06:13N 44°25' E 035°36'811.5
2016-Jul-18 05:33N 44°25' E 035°47'1311.6
2016-Jul-18 04:27N 44°27' E 036°05'1111.5
2016-Jul-18 03:30N 44°28' E 036°20'1111.4
2016-Jul-18 02:33N 44°29' E 036°35'1111.2
2016-Jul-18 01:33N 44°30' E 036°51'1111.2
2016-Jul-18 00:34N 44°31' E 037°06'1111.4
2016-Jul-17 23:34N 44°33' E 037°22'1111.2
2016-Jul-17 22:33N 44°34' E 037°38'10 9.9
2016-Jul-17 21:33N 44°39' E 037°50'5 5.1
2016-Jul-17 20:33N 44°44' E 037°48'0 0.0
2016-Jul-17 19:33N 44°44' E 037°48'0 0.0
2016-Jul-17 18:33N 44°44' E 037°48'0 0.0
2016-Jul-17 17:33N 44°44' E 037°48'0 0.0
2016-Jul-17 16:33N 44°44' E 037°48'0 0.0
2016-Jul-17 15:33N 44°44' E 037°48'0 0.0
2016-Jul-17 14:33N 44°44' E 037°48'0 0.0
2016-Jul-17 13:30N 44°44' E 037°48'0 0.0
2016-Jul-17 12:33N 44°44' E 037°48'0 0.0
2016-Jul-17 11:33N 44°44' E 037°48'0 0.0
2016-Jul-17 10:30N 44°44' E 037°48'0 0.0
2016-Jul-17 09:33N 44°44' E 037°48'0 0.0
2016-Jul-17 08:33N 44°44' E 037°48'0 0.0
2016-Jul-17 07:30N 44°44' E 037°48'0 0.0
2016-Jul-17 06:33N 44°44' E 037°48'0 0.0
2016-Jul-17 04:33N 44°44' E 037°48'0 0.0
2016-Jul-17 03:33N 44°44' E 037°48'0 0.0
2016-Jul-17 02:33N 44°44' E 037°48'0 0.0
2016-Jul-17 01:33N 44°44' E 037°48'0 0.0
2016-Jul-17 00:33N 44°44' E 037°48'0 0.0
2016-Jul-16 23:24N 44°44' E 037°48'0 0.0
2016-Jul-16 22:33N 44°44' E 037°48'0 0.0
2016-Jul-16 21:30N 44°44' E 037°48'0 0.0
2016-Jul-16 20:33N 44°44' E 037°48'0 0.0
2016-Jul-16 19:33N 44°44' E 037°48'0 0.0
2016-Jul-16 18:33N 44°44' E 037°48'0 0.0
2016-Jul-16 17:33N 44°44' E 037°48'0 0.0
2016-Jul-16 16:33N 44°44' E 037°48'0 0.0
2016-Jul-16 15:33N 44°44' E 037°48'0 0.0
2016-Jul-16 14:33N 44°44' E 037°48'0 0.0
2016-Jul-16 13:33N 44°44' E 037°48'0 0.0
2016-Jul-16 12:33N 44°44' E 037°48'0 0.0
2016-Jul-16 11:33N 44°44' E 037°48'  

Dump ship's entire track history